sensor_id;sensor_type;location;lat;lon;timestamp;pressure;altitude;pressure_sealevel;temperature;humidity
41334;BME280;27078;46.428;6.256;2023-07-22T00:01:09;96482.72;;;17.60;92.01
41334;BME280;27078;46.428;6.256;2023-07-22T00:03:35;96486.28;;;17.52;92.06
41334;BME280;27078;46.428;6.256;2023-07-22T00:06:08;96485.69;;;17.42;94.39
41334;BME280;27078;46.428;6.256;2023-07-22T00:08:34;96479.41;;;17.35;94.48
41334;BME280;27078;46.428;6.256;2023-07-22T00:10:59;96479.31;;;17.28;98.63
41334;BME280;27078;46.428;6.256;2023-07-22T00:13:25;96487.06;;;17.15;100.00
41334;BME280;27078;46.428;6.256;2023-07-22T00:15:53;96487.28;;;17.05;100.00
41334;BME280;27078;46.428;6.256;2023-07-22T00:18:18;96489.78;;;17.06;100.00
41334;BME280;27078;46.428;6.256;2023-07-22T00:20:43;96486.63;;;17.03;100.00
41334;BME280;27078;46.428;6.256;2023-07-22T00:23:09;96485.84;;;16.94;100.00
41334;BME280;27078;46.428;6.256;2023-07-22T00:25:35;96495.03;;;16.92;100.00
41334;BME280;27078;46.428;6.256;2023-07-22T00:28:00;96494.06;;;16.84;100.00
41334;BME280;27078;46.428;6.256;2023-07-22T00:30:26;96495.94;;;16.67;100.00
41334;BME280;27078;46.428;6.256;2023-07-22T00:32:53;96494.47;;;16.57;100.00
41334;BME280;27078;46.428;6.256;2023-07-22T00:35:18;96501.16;;;16.53;100.00
41334;BME280;27078;46.428;6.256;2023-07-22T00:37:44;96500.84;;;16.47;100.00
41334;BME280;27078;46.428;6.256;2023-07-22T00:40:09;96497.22;;;16.40;100.00
41334;BME280;27078;46.428;6.256;2023-07-22T00:42:40;96493.91;;;16.38;100.00
41334;BME280;27078;46.428;6.256;2023-07-22T00:45:06;96493.91;;;16.38;100.00
41334;BME280;27078;46.428;6.256;2023-07-22T00:47:33;96490.56;;;16.36;100.00
41334;BME280;27078;46.428;6.256;2023-07-22T00:50:00;96498.22;;;16.31;100.00
41334;BME280;27078;46.428;6.256;2023-07-22T00:52:26;96499.25;;;16.22;100.00
41334;BME280;27078;46.428;6.256;2023-07-22T00:54:52;96497.94;;;16.10;100.00
41334;BME280;27078;46.428;6.256;2023-07-22T00:57:18;96496.94;;;16.11;100.00
41334;BME280;27078;46.428;6.256;2023-07-22T00:59:44;96488.63;;;16.14;100.00
41334;BME280;27078;46.428;6.256;2023-07-22T01:02:10;96484.63;;;16.10;100.00
41334;BME280;27078;46.428;6.256;2023-07-22T01:04:36;96489.28;;;16.16;100.00
41334;BME280;27078;46.428;6.256;2023-07-22T01:07:02;96482.59;;;16.20;100.00
41334;BME280;27078;46.428;6.256;2023-07-22T01:09:39;96482.25;;;16.23;100.00
41334;BME280;27078;46.428;6.256;2023-07-22T01:12:05;96473.94;;;16.26;100.00
41334;BME280;27078;46.428;6.256;2023-07-22T01:14:37;96470.75;;;16.31;100.00
41334;BME280;27078;46.428;6.256;2023-07-22T01:17:05;96475.41;;;16.37;100.00
41334;BME280;27078;46.428;6.256;2023-07-22T01:19:32;96478.22;;;16.35;100.00
41334;BME280;27078;46.428;6.256;2023-07-22T01:21:59;96480.91;;;16.27;100.00
41334;BME280;27078;46.428;6.256;2023-07-22T01:24:25;96479.28;;;16.26;100.00
41334;BME280;27078;46.428;6.256;2023-07-22T01:26:51;96479.28;;;16.26;100.00
41334;BME280;27078;46.428;6.256;2023-07-22T01:29:16;96483.56;;;16.27;100.00
41334;BME280;27078;46.428;6.256;2023-07-22T01:31:41;96477.94;;;16.22;100.00
41334;BME280;27078;46.428;6.256;2023-07-22T01:34:07;96476.63;;;16.18;100.00
41334;BME280;27078;46.428;6.256;2023-07-22T01:36:32;96478.13;;;16.12;100.00
41334;BME280;27078;46.428;6.256;2023-07-22T01:38:57;96474.13;;;16.08;100.00
41334;BME280;27078;46.428;6.256;2023-07-22T01:41:23;96473.81;;;16.11;100.00
41334;BME280;27078;46.428;6.256;2023-07-22T01:43:48;96473.28;;;16.16;100.00
41334;BME280;27078;46.428;6.256;2023-07-22T01:46:14;96470.94;;;16.21;100.00
41334;BME280;27078;46.428;6.256;2023-07-22T01:48:39;96466.63;;;16.12;100.00
41334;BME280;27078;46.428;6.256;2023-07-22T01:51:04;96463.66;;;16.06;100.00
41334;BME280;27078;46.428;6.256;2023-07-22T01:53:30;96463.31;;;16.10;100.00
41334;BME280;27078;46.428;6.256;2023-07-22T01:55:55;96467.84;;;16.01;100.00
41334;BME280;27078;46.428;6.256;2023-07-22T01:58:21;96467.31;;;16.05;100.00
41334;BME280;27078;46.428;6.256;2023-07-22T02:00:50;96464.00;;;16.03;100.00
41334;BME280;27078;46.428;6.256;2023-07-22T02:03:15;96460.34;;;16.04;100.00
41334;BME280;27078;46.428;6.256;2023-07-22T02:05:40;96468.16;;;16.06;100.00
41334;BME280;27078;46.428;6.256;2023-07-22T02:08:06;96464.66;;;16.05;100.00
41334;BME280;27078;46.428;6.256;2023-07-22T02:10:31;96465.31;;;16.07;100.00
41334;BME280;27078;46.428;6.256;2023-07-22T02:12:56;96463.31;;;16.10;100.00
41334;BME280;27078;46.428;6.256;2023-07-22T02:15:22;96461.16;;;16.13;100.00
41334;BME280;27078;46.428;6.256;2023-07-22T02:17:49;96459.97;;;16.16;100.00
41334;BME280;27078;46.428;6.256;2023-07-22T02:20:14;96462.47;;;16.17;98.58
41334;BME280;27078;46.428;6.256;2023-07-22T02:22:40;96461.13;;;16.21;97.11
41334;BME280;27078;46.428;6.256;2023-07-22T02:25:05;96463.44;;;16.24;96.75
41334;BME280;27078;46.428;6.256;2023-07-22T02:27:31;96458.78;;;16.26;94.76
41334;BME280;27078;46.428;6.256;2023-07-22T02:29:57;96455.28;;;16.26;95.48
41334;BME280;27078;46.428;6.256;2023-07-22T02:32:22;96457.28;;;16.24;96.52
41334;BME280;27078;46.428;6.256;2023-07-22T02:34:47;96461.97;;;16.22;96.27
41334;BME280;27078;46.428;6.256;2023-07-22T02:37:13;96464.63;;;16.14;98.17
41334;BME280;27078;46.428;6.256;2023-07-22T02:39:38;96462.97;;;16.13;96.96
41334;BME280;27078;46.428;6.256;2023-07-22T02:42:03;96458.34;;;16.06;98.63
41334;BME280;27078;46.428;6.256;2023-07-22T02:44:29;96460.00;;;16.07;97.02
41334;BME280;27078;46.428;6.256;2023-07-22T02:46:54;96467.97;;;16.16;94.98
41334;BME280;27078;46.428;6.256;2023-07-22T02:49:19;96459.28;;;16.22;92.94
41334;BME280;27078;46.428;6.256;2023-07-22T02:51:45;96471.06;;;16.27;92.34
41334;BME280;27078;46.428;6.256;2023-07-22T02:54:10;96467.94;;;16.32;91.39
41334;BME280;27078;46.428;6.256;2023-07-22T02:56:35;96467.41;;;16.37;90.94
41334;BME280;27078;46.428;6.256;2023-07-22T02:59:01;96469.25;;;16.36;91.46
41334;BME280;27078;46.428;6.256;2023-07-22T03:01:26;96468.91;;;16.31;92.15
41334;BME280;27078;46.428;6.256;2023-07-22T03:03:51;96473.09;;;16.25;92.15
41334;BME280;27078;46.428;6.256;2023-07-22T03:06:17;96479.94;;;16.20;95.70
41334;BME280;27078;46.428;6.256;2023-07-22T03:08:42;96477.47;;;16.02;99.07
41334;BME280;27078;46.428;6.256;2023-07-22T03:11:07;96467.69;;;15.94;99.09
41334;BME280;27078;46.428;6.256;2023-07-22T03:13:33;96464.00;;;15.87;99.10
41334;BME280;27078;46.428;6.256;2023-07-22T03:16:00;96476.34;;;15.72;100.00
41334;BME280;27078;46.428;6.256;2023-07-22T03:18:29;96475.66;;;15.61;100.00
41334;BME280;27078;46.428;6.256;2023-07-22T03:20:55;96484.66;;;15.60;100.00
41334;BME280;27078;46.428;6.256;2023-07-22T03:23:21;96490.81;;;15.69;98.51
41334;BME280;27078;46.428;6.256;2023-07-22T03:25:47;96494.66;;;15.75;98.18
41334;BME280;27078;46.428;6.256;2023-07-22T03:28:13;96497.00;;;15.78;99.31
41334;BME280;27078;46.428;6.256;2023-07-22T03:30:38;96492.47;;;15.70;100.00
41334;BME280;27078;46.428;6.256;2023-07-22T03:33:03;96495.00;;;15.72;98.64
41334;BME280;27078;46.428;6.256;2023-07-22T03:35:29;96500.44;;;15.70;100.00
41334;BME280;27078;46.428;6.256;2023-07-22T03:37:54;96498.63;;;15.71;100.00
41334;BME280;27078;46.428;6.256;2023-07-22T03:40:20;96504.94;;;15.70;100.00
41334;BME280;27078;46.428;6.256;2023-07-22T03:42:49;96512.25;;;15.67;100.00
41334;BME280;27078;46.428;6.256;2023-07-22T03:45:16;96517.25;;;15.62;100.00
41334;BME280;27078;46.428;6.256;2023-07-22T03:47:44;96508.94;;;15.65;100.00
41334;BME280;27078;46.428;6.256;2023-07-22T03:50:09;96517.28;;;15.71;100.00
41334;BME280;27078;46.428;6.256;2023-07-22T03:52:34;96508.81;;;15.75;100.00
41334;BME280;27078;46.428;6.256;2023-07-22T03:55:00;96518.63;;;15.75;100.00
41334;BME280;27078;46.428;6.256;2023-07-22T03:57:26;96519.78;;;15.72;100.00
41334;BME280;27078;46.428;6.256;2023-07-22T03:59:55;96519.25;;;15.68;100.00
41334;BME280;27078;46.428;6.256;2023-07-22T04:02:21;96526.91;;;15.63;100.00
41334;BME280;27078;46.428;6.256;2023-07-22T04:04:46;96522.91;;;15.67;100.00
41334;BME280;27078;46.428;6.256;2023-07-22T04:07:12;96519.59;;;15.65;100.00
41334;BME280;27078;46.428;6.256;2023-07-22T04:09:37;96519.94;;;15.62;100.00
41334;BME280;27078;46.428;6.256;2023-07-22T04:12:03;96528.22;;;15.59;100.00
41334;BME280;27078;46.428;6.256;2023-07-22T04:14:29;96525.25;;;15.54;100.00
41334;BME280;27078;46.428;6.256;2023-07-22T04:16:54;96531.72;;;15.52;100.00
41334;BME280;27078;46.428;6.256;2023-07-22T04:19:19;96533.06;;;15.47;100.00
41334;BME280;27078;46.428;6.256;2023-07-22T04:21:45;96531.06;;;15.41;100.00
41334;BME280;27078;46.428;6.256;2023-07-22T04:24:10;96537.88;;;15.44;100.00
41334;BME280;27078;46.428;6.256;2023-07-22T04:26:36;96534.53;;;15.42;100.00
41334;BME280;27078;46.428;6.256;2023-07-22T04:29:01;96532.69;;;15.42;100.00
41334;BME280;27078;46.428;6.256;2023-07-22T04:31:26;96530.69;;;15.36;100.00
41334;BME280;27078;46.428;6.256;2023-07-22T04:33:52;96545.00;;;15.35;100.00
41334;BME280;27078;46.428;6.256;2023-07-22T04:36:17;96541.16;;;15.30;100.00
41334;BME280;27078;46.428;6.256;2023-07-22T04:38:42;96539.31;;;15.30;100.00
41334;BME280;27078;46.428;6.256;2023-07-22T04:41:08;96547.81;;;15.34;100.00
41334;BME280;27078;46.428;6.256;2023-07-22T04:43:33;96546.19;;;15.33;100.00
41334;BME280;27078;46.428;6.256;2023-07-22T04:45:58;96553.00;;;15.43;100.00
41334;BME280;27078;46.428;6.256;2023-07-22T04:48:24;96543.38;;;15.51;100.00
41334;BME280;27078;46.428;6.256;2023-07-22T04:50:49;96547.69;;;15.60;100.00
41334;BME280;27078;46.428;6.256;2023-07-22T04:53:16;96549.72;;;15.74;100.00
41334;BME280;27078;46.428;6.256;2023-07-22T04:55:42;96549.22;;;15.87;100.00
41334;BME280;27078;46.428;6.256;2023-07-22T04:58:08;96549.56;;;16.00;100.00
41334;BME280;27078;46.428;6.256;2023-07-22T05:00:34;96546.56;;;16.12;100.00
41334;BME280;27078;46.428;6.256;2023-07-22T05:03:00;96546.88;;;16.25;98.27
41334;BME280;27078;46.428;6.256;2023-07-22T05:05:25;96548.34;;;16.36;96.57
41334;BME280;27078;46.428;6.256;2023-07-22T05:07:51;96547.50;;;16.43;96.09
41334;BME280;27078;46.428;6.256;2023-07-22T05:10:17;96554.47;;;16.53;97.24
41334;BME280;27078;46.428;6.256;2023-07-22T05:12:44;96556.13;;;16.62;99.14
41334;BME280;27078;46.428;6.256;2023-07-22T05:15:10;96557.75;;;16.71;97.42
41334;BME280;27078;46.428;6.256;2023-07-22T05:17:36;96556.72;;;16.80;94.50
41334;BME280;27078;46.428;6.256;2023-07-22T05:20:02;96557.38;;;16.91;95.67
41334;BME280;27078;46.428;6.256;2023-07-22T05:22:31;96559.69;;;17.02;95.54
41334;BME280;27078;46.428;6.256;2023-07-22T05:24:56;96558.66;;;17.03;98.12
41334;BME280;27078;46.428;6.256;2023-07-22T05:27:21;96562.16;;;17.03;99.08
41334;BME280;27078;46.428;6.256;2023-07-22T05:29:47;96561.31;;;17.03;99.51
41334;BME280;27078;46.428;6.256;2023-07-22T05:32:13;96558.94;;;17.08;100.00
41334;BME280;27078;46.428;6.256;2023-07-22T05:34:38;96559.94;;;17.15;100.00
41334;BME280;27078;46.428;6.256;2023-07-22T05:37:04;96557.94;;;17.17;100.00
41334;BME280;27078;46.428;6.256;2023-07-22T05:39:29;96563.25;;;17.17;100.00
41334;BME280;27078;46.428;6.256;2023-07-22T05:41:54;96565.41;;;17.22;100.00
41334;BME280;27078;46.428;6.256;2023-07-22T05:44:20;96572.88;;;17.26;100.00
41334;BME280;27078;46.428;6.256;2023-07-22T05:46:45;96568.38;;;17.27;100.00
41334;BME280;27078;46.428;6.256;2023-07-22T05:49:10;96577.22;;;17.27;100.00
41334;BME280;27078;46.428;6.256;2023-07-22T05:51:36;96568.53;;;17.34;100.00
41334;BME280;27078;46.428;6.256;2023-07-22T05:54:02;96578.00;;;17.36;100.00
41334;BME280;27078;46.428;6.256;2023-07-22T05:56:27;96581.78;;;17.42;100.00
41334;BME280;27078;46.428;6.256;2023-07-22T05:58:52;96578.75;;;17.53;100.00
41334;BME280;27078;46.428;6.256;2023-07-22T06:01:18;96576.47;;;17.65;100.00
41334;BME280;27078;46.428;6.256;2023-07-22T06:03:43;96574.88;;;17.79;100.00
41334;BME280;27078;46.428;6.256;2023-07-22T06:06:09;96579.50;;;17.93;100.00
41334;BME280;27078;46.428;6.256;2023-07-22T06:08:35;96568.66;;;18.09;100.00
41334;BME280;27078;46.428;6.256;2023-07-22T06:11:00;96566.88;;;18.25;100.00
41334;BME280;27078;46.428;6.256;2023-07-22T06:13:25;96571.59;;;18.38;95.91
41334;BME280;27078;46.428;6.256;2023-07-22T06:15:52;96574.84;;;18.48;94.89
41334;BME280;27078;46.428;6.256;2023-07-22T06:18:17;96571.97;;;18.64;94.48
41334;BME280;27078;46.428;6.256;2023-07-22T06:20:44;96573.09;;;18.70;95.33
41334;BME280;27078;46.428;6.256;2023-07-22T06:23:09;96577.88;;;18.75;95.32
41334;BME280;27078;46.428;6.256;2023-07-22T06:25:34;96570.81;;;18.82;82.72
41334;BME280;27078;46.428;6.256;2023-07-22T06:28:00;96568.38;;;18.72;84.36
41334;BME280;27078;46.428;6.256;2023-07-22T06:30:25;96572.34;;;18.76;85.60
41334;BME280;27078;46.428;6.256;2023-07-22T06:32:50;96580.06;;;18.71;84.64
41334;BME280;27078;46.428;6.256;2023-07-22T06:35:16;96575.03;;;18.76;85.98
41334;BME280;27078;46.428;6.256;2023-07-22T06:37:41;96580.66;;;18.81;89.81
41334;BME280;27078;46.428;6.256;2023-07-22T06:40:07;96581.50;;;18.97;100.00
41334;BME280;27078;46.428;6.256;2023-07-22T06:42:33;96575.78;;;19.00;97.97
41334;BME280;27078;46.428;6.256;2023-07-22T06:44:58;96582.31;;;19.12;97.74
41334;BME280;27078;46.428;6.256;2023-07-22T06:47:23;96580.53;;;19.19;87.55
41334;BME280;27078;46.428;6.256;2023-07-22T06:49:49;96586.09;;;19.32;90.24
41334;BME280;27078;46.428;6.256;2023-07-22T06:52:16;96589.09;;;19.44;85.38
41334;BME280;27078;46.428;6.256;2023-07-22T06:54:41;96588.78;;;19.54;82.61
41334;BME280;27078;46.428;6.256;2023-07-22T06:57:06;96590.97;;;19.65;83.05
41334;BME280;27078;46.428;6.256;2023-07-22T06:59:32;96590.50;;;19.77;82.16
41334;BME280;27078;46.428;6.256;2023-07-22T07:01:57;96584.81;;;19.86;78.49
41334;BME280;27078;46.428;6.256;2023-07-22T07:04:23;96591.28;;;19.92;79.09
41334;BME280;27078;46.428;6.256;2023-07-22T07:06:49;96585.53;;;19.95;80.00
41334;BME280;27078;46.428;6.256;2023-07-22T07:09:15;96583.72;;;20.02;79.61
41334;BME280;27078;46.428;6.256;2023-07-22T07:11:40;96587.50;;;20.08;78.82
41334;BME280;27078;46.428;6.256;2023-07-22T07:14:06;96582.31;;;20.06;82.24
41334;BME280;27078;46.428;6.256;2023-07-22T07:16:31;96582.72;;;20.03;80.47
41334;BME280;27078;46.428;6.256;2023-07-22T07:18:58;96592.69;;;20.09;80.19
41334;BME280;27078;46.428;6.256;2023-07-22T07:21:23;96592.00;;;20.29;79.28
41334;BME280;27078;46.428;6.256;2023-07-22T07:23:49;96599.91;;;20.37;77.78
41334;BME280;27078;46.428;6.256;2023-07-22T07:26:15;96588.41;;;20.43;77.53
41334;BME280;27078;46.428;6.256;2023-07-22T07:28:41;96587.22;;;20.52;77.30
41334;BME280;27078;46.428;6.256;2023-07-22T07:31:06;96588.50;;;20.57;81.25
41334;BME280;27078;46.428;6.256;2023-07-22T07:33:33;96582.63;;;20.68;83.31
41334;BME280;27078;46.428;6.256;2023-07-22T07:35:58;96587.91;;;20.83;82.31
41334;BME280;27078;46.428;6.256;2023-07-22T07:38:23;96589.41;;;20.99;82.86
41334;BME280;27078;46.428;6.256;2023-07-22T07:40:56;96583.47;;;21.10;76.65
41334;BME280;27078;46.428;6.256;2023-07-22T07:43:22;96586.03;;;21.25;78.90
41334;BME280;27078;46.428;6.256;2023-07-22T07:45:47;96585.25;;;21.38;75.65
41334;BME280;27078;46.428;6.256;2023-07-22T07:48:12;96590.28;;;21.47;73.80
41334;BME280;27078;46.428;6.256;2023-07-22T07:50:38;96587.22;;;21.57;72.65
41334;BME280;27078;46.428;6.256;2023-07-22T07:53:03;96592.63;;;21.70;73.51
41334;BME280;27078;46.428;6.256;2023-07-22T07:55:28;96596.56;;;21.74;70.23
41334;BME280;27078;46.428;6.256;2023-07-22T07:57:54;96594.88;;;21.67;70.69
41334;BME280;27078;46.428;6.256;2023-07-22T08:00:19;96602.34;;;21.71;73.42
41334;BME280;27078;46.428;6.256;2023-07-22T08:02:46;96593.69;;;21.76;72.17
41334;BME280;27078;46.428;6.256;2023-07-22T08:05:11;96583.78;;;21.83;72.51
41334;BME280;27078;46.428;6.256;2023-07-22T08:07:37;96594.09;;;21.86;71.46
41334;BME280;27078;46.428;6.256;2023-07-22T08:10:04;96588.34;;;21.96;70.72
41334;BME280;27078;46.428;6.256;2023-07-22T08:12:30;96583.38;;;22.00;63.20
41334;BME280;27078;46.428;6.256;2023-07-22T08:14:56;96587.31;;;22.10;66.79
41334;BME280;27078;46.428;6.256;2023-07-22T08:17:21;96589.22;;;22.23;65.01
41334;BME280;27078;46.428;6.256;2023-07-22T08:19:47;96587.78;;;22.34;63.56
41334;BME280;27078;46.428;6.256;2023-07-22T08:22:12;96578.88;;;22.47;61.68
41334;BME280;27078;46.428;6.256;2023-07-22T08:24:37;96580.94;;;22.58;62.40
41334;BME280;27078;46.428;6.256;2023-07-22T08:27:03;96583.81;;;22.70;58.98
41334;BME280;27078;46.428;6.256;2023-07-22T08:29:28;96587.09;;;22.85;56.30
41334;BME280;27078;46.428;6.256;2023-07-22T08:31:54;96584.84;;;22.82;55.11
41334;BME280;27078;46.428;6.256;2023-07-22T08:34:19;96583.81;;;22.70;56.21
41334;BME280;27078;46.428;6.256;2023-07-22T08:36:44;96586.47;;;22.83;56.85
41334;BME280;27078;46.428;6.256;2023-07-22T08:39:10;96592.06;;;22.88;56.19
41334;BME280;27078;46.428;6.256;2023-07-22T08:41:36;96583.34;;;23.00;54.77
41334;BME280;27078;46.428;6.256;2023-07-22T08:44:01;96582.53;;;22.99;54.40
41334;BME280;27078;46.428;6.256;2023-07-22T08:46:29;96588.94;;;22.98;53.03
41334;BME280;27078;46.428;6.256;2023-07-22T08:48:59;96588.31;;;23.03;53.16
41334;BME280;27078;46.428;6.256;2023-07-22T08:51:26;96579.00;;;23.12;54.36
41334;BME280;27078;46.428;6.256;2023-07-22T08:53:56;96584.91;;;23.34;53.08
41334;BME280;27078;46.428;6.256;2023-07-22T08:56:25;96581.28;;;23.53;49.93
41334;BME280;27078;46.428;6.256;2023-07-22T08:58:54;96580.81;;;23.70;49.57
41334;BME280;27078;46.428;6.256;2023-07-22T09:01:20;96585.09;;;23.84;49.71
41334;BME280;27078;46.428;6.256;2023-07-22T09:03:47;96575.91;;;23.98;48.91
41334;BME280;27078;46.428;6.256;2023-07-22T09:06:12;96584.34;;;24.09;46.30
41334;BME280;27078;46.428;6.256;2023-07-22T09:08:38;96588.16;;;24.26;45.14
41334;BME280;27078;46.428;6.256;2023-07-22T09:17:48;96577.63;;;24.43;43.37
41334;BME280;27078;46.428;6.256;2023-07-22T09:20:14;96577.25;;;24.39;43.85
41334;BME280;27078;46.428;6.256;2023-07-22T09:22:47;96587.56;;;24.49;42.64
41334;BME280;27078;46.428;6.256;2023-07-22T09:25:13;96575.44;;;24.58;41.41
41334;BME280;27078;46.428;6.256;2023-07-22T09:27:40;96582.50;;;24.60;43.87
41334;BME280;27078;46.428;6.256;2023-07-22T09:30:29;96587.66;;;24.61;43.88
41334;BME280;27078;46.428;6.256;2023-07-22T09:33:00;96580.84;;;24.58;41.05
41334;BME280;27078;46.428;6.256;2023-07-22T09:35:28;96581.22;;;24.62;43.12
41334;BME280;27078;46.428;6.256;2023-07-22T09:37:54;96585.16;;;24.66;42.19
41334;BME280;27078;46.428;6.256;2023-07-22T09:40:22;96578.19;;;24.77;43.65
41334;BME280;27078;46.428;6.256;2023-07-22T09:42:55;96582.56;;;24.96;42.57
41334;BME280;27078;46.428;6.256;2023-07-22T09:45:23;96580.75;;;25.09;42.42
41334;BME280;27078;46.428;6.256;2023-07-22T09:47:49;96574.88;;;25.12;41.64
41334;BME280;27078;46.428;6.256;2023-07-22T09:50:17;96581.06;;;25.19;40.82
41334;BME280;27078;46.428;6.256;2023-07-22T09:52:57;96581.38;;;25.29;40.96
41334;BME280;27078;46.428;6.256;2023-07-22T09:55:29;96574.78;;;25.25;40.61
41334;BME280;27078;46.428;6.256;2023-07-22T09:58:00;96571.50;;;25.23;40.50
41334;BME280;27078;46.428;6.256;2023-07-22T10:00:35;96575.06;;;25.35;38.38
41334;BME280;27078;46.428;6.256;2023-07-22T10:03:02;96575.13;;;25.47;38.70
41334;BME280;27078;46.428;6.256;2023-07-22T10:05:34;96582.25;;;25.60;37.32
41334;BME280;27078;46.428;6.256;2023-07-22T10:08:01;96570.41;;;25.73;36.68
41334;BME280;27078;46.428;6.256;2023-07-22T10:10:32;96573.34;;;25.90;35.46
41334;BME280;27078;46.428;6.256;2023-07-22T10:12:57;96566.69;;;26.04;36.22
41334;BME280;27078;46.428;6.256;2023-07-22T10:15:25;96562.91;;;26.05;35.93
41334;BME280;27078;46.428;6.256;2023-07-22T10:17:51;96558.56;;;26.16;35.37
41334;BME280;27078;46.428;6.256;2023-07-22T10:20:19;96563.16;;;26.15;36.12
41334;BME280;27078;46.428;6.256;2023-07-22T10:22:46;96563.53;;;26.31;35.69
41334;BME280;27078;46.428;6.256;2023-07-22T10:25:14;96561.09;;;26.41;35.70
41334;BME280;27078;46.428;6.256;2023-07-22T10:27:40;96559.09;;;26.48;35.15
41334;BME280;27078;46.428;6.256;2023-07-22T10:30:08;96569.09;;;26.36;35.04
41334;BME280;27078;46.428;6.256;2023-07-22T10:32:35;96560.25;;;26.40;34.10
41334;BME280;27078;46.428;6.256;2023-07-22T10:35:01;96567.34;;;26.53;34.38
41334;BME280;27078;46.428;6.256;2023-07-22T10:37:31;96561.13;;;26.65;34.83
41334;BME280;27078;46.428;6.256;2023-07-22T10:43:05;96543.13;;;26.70;34.59
41334;BME280;27078;46.428;6.256;2023-07-22T10:45:33;96547.34;;;26.66;34.50
41334;BME280;27078;46.428;6.256;2023-07-22T10:48:07;96553.38;;;26.80;34.96
41334;BME280;27078;46.428;6.256;2023-07-22T10:50:47;96544.88;;;26.88;34.80
41334;BME280;27078;46.428;6.256;2023-07-22T11:01:22;96548.25;;;27.07;35.38
41334;BME280;27078;46.428;6.256;2023-07-22T11:14:28;96541.50;;;27.21;34.80
41334;BME280;27078;46.428;6.256;2023-07-22T11:16:56;96536.09;;;27.33;34.64
41334;BME280;27078;46.428;6.256;2023-07-22T11:19:23;96523.25;;;27.29;34.20
41334;BME280;27078;46.428;6.256;2023-07-22T11:21:50;96526.66;;;27.24;34.65
41334;BME280;27078;46.428;6.256;2023-07-22T11:24:16;96529.03;;;27.09;34.08
41334;BME280;27078;46.428;6.256;2023-07-22T11:26:43;96524.25;;;26.99;34.65
41334;BME280;27078;46.428;6.256;2023-07-22T11:29:09;96522.94;;;27.01;34.09
41334;BME280;27078;46.428;6.256;2023-07-22T11:31:36;96519.38;;;27.13;34.20
41334;BME280;27078;46.428;6.256;2023-07-22T11:34:05;96506.19;;;27.16;34.27
41334;BME280;27078;46.428;6.256;2023-07-22T11:36:31;96519.38;;;27.13;33.64
41334;BME280;27078;46.428;6.256;2023-07-22T11:39:20;96511.56;;;27.28;33.83
41334;BME280;27078;46.428;6.256;2023-07-22T11:41:46;96509.19;;;27.44;32.42
41334;BME280;27078;46.428;6.256;2023-07-22T11:44:17;96506.09;;;27.52;32.69
41334;BME280;27078;46.428;6.256;2023-07-22T11:49:46;96498.69;;;27.64;31.58
41334;BME280;27078;46.428;6.256;2023-07-22T11:52:16;96500.38;;;27.82;31.78
41334;BME280;27078;46.428;6.256;2023-07-22T11:54:45;96500.91;;;27.96;31.41
41334;BME280;27078;46.428;6.256;2023-07-22T11:57:14;96495.09;;;28.04;30.82
41334;BME280;27078;46.428;6.256;2023-07-22T11:59:44;96503.50;;;28.19;31.51
41334;BME280;27078;46.428;6.256;2023-07-22T12:02:15;96498.38;;;28.23;31.14
41334;BME280;27078;46.428;6.256;2023-07-22T12:04:42;96496.75;;;28.22;31.07
41334;BME280;27078;46.428;6.256;2023-07-22T12:07:21;96500.28;;;28.22;30.74
41334;BME280;27078;46.428;6.256;2023-07-22T12:09:48;96497.06;;;28.26;31.06
41334;BME280;27078;46.428;6.256;2023-07-22T12:12:14;96483.66;;;28.19;30.43
41334;BME280;27078;46.428;6.256;2023-07-22T12:14:41;96485.31;;;28.20;31.26
41334;BME280;27078;46.428;6.256;2023-07-22T12:17:08;96485.47;;;28.30;30.54
41334;BME280;27078;46.428;6.256;2023-07-22T12:19:34;96483.91;;;28.51;30.44
41334;BME280;27078;46.428;6.256;2023-07-22T12:22:00;96481.91;;;28.63;30.24
41334;BME280;27078;46.428;6.256;2023-07-22T12:27:15;96482.44;;;28.82;30.41
41334;BME280;27078;46.428;6.256;2023-07-22T12:29:40;96470.88;;;28.92;29.96
41334;BME280;27078;46.428;6.256;2023-07-22T12:32:06;96472.03;;;28.96;29.86
41334;BME280;27078;46.428;6.256;2023-07-22T12:34:31;96466.53;;;29.13;29.81
41334;BME280;27078;46.428;6.256;2023-07-22T12:36:56;96471.03;;;29.25;30.11
41334;BME280;27078;46.428;6.256;2023-07-22T12:39:22;96469.31;;;29.40;29.81
41334;BME280;27078;46.428;6.256;2023-07-22T12:41:47;96460.38;;;29.45;29.27
41334;BME280;27078;46.428;6.256;2023-07-22T12:44:12;96463.19;;;29.28;29.25
41334;BME280;27078;46.428;6.256;2023-07-22T12:46:38;96460.81;;;29.37;28.97
41334;BME280;27078;46.428;6.256;2023-07-22T12:49:03;96461.44;;;29.17;29.49
41334;BME280;27078;46.428;6.256;2023-07-22T12:51:28;96453.53;;;29.15;30.01
41334;BME280;27078;46.428;6.256;2023-07-22T12:53:54;96454.94;;;29.23;29.86
41334;BME280;27078;46.428;6.256;2023-07-22T12:56:19;96448.59;;;29.39;29.49
41334;BME280;27078;46.428;6.256;2023-07-22T12:58:44;96451.28;;;29.34;29.06
41334;BME280;27078;46.428;6.256;2023-07-22T13:01:09;96450.16;;;29.30;29.66
41334;BME280;27078;46.428;6.256;2023-07-22T13:03:35;96444.72;;;29.30;30.76
41334;BME280;27078;46.428;6.256;2023-07-22T13:06:00;96446.88;;;29.55;30.01
41334;BME280;27078;46.428;6.256;2023-07-22T13:08:25;96439.78;;;29.81;29.63
41334;BME280;27078;46.428;6.256;2023-07-22T13:10:51;96441.47;;;29.88;28.45
41334;BME280;27078;46.428;6.256;2023-07-22T13:13:16;96442.25;;;29.83;28.75
41334;BME280;27078;46.428;6.256;2023-07-22T13:15:41;96437.28;;;29.75;28.10
41334;BME280;27078;46.428;6.256;2023-07-22T13:18:07;96438.97;;;29.54;28.37
41334;BME280;27078;46.428;6.256;2023-07-22T13:20:32;96441.25;;;29.67;29.08
41334;BME280;27078;46.428;6.256;2023-07-22T13:22:58;96441.03;;;29.41;29.33
41334;BME280;27078;46.428;6.256;2023-07-22T13:25:23;96439.53;;;29.07;29.41
41334;BME280;27078;46.428;6.256;2023-07-22T13:27:48;96450.41;;;29.07;29.55